createdAt,value
2022-12-04T00:05:16.027Z,101288.03
2022-12-04T00:15:25.710Z,101292.19
2022-12-04T00:25:35.261Z,101301.09
2022-12-04T00:35:42.470Z,101296.84
2022-12-04T00:45:45.927Z,101308.03
2022-12-04T00:55:50.427Z,101312.00
2022-12-04T01:05:54.156Z,101307.28
2022-12-04T01:15:58.663Z,101289.97
2022-12-04T01:26:02.254Z,101282.31
2022-12-04T01:36:09.204Z,101293.38
2022-12-04T01:46:13.196Z,101279.25
2022-12-04T01:56:18.301Z,101285.66
2022-12-04T02:06:21.405Z,101291.94
2022-12-04T02:16:29.895Z,101313.62
2022-12-04T02:26:42.280Z,101298.16
2022-12-04T02:36:51.547Z,101276.59
2022-12-04T02:46:57.989Z,101276.41
2022-12-04T02:57:03.731Z,101272.91
2022-12-04T03:07:13.536Z,101275.88
2022-12-04T03:17:22.003Z,101284.37
2022-12-04T03:27:27.899Z,101285.47
2022-12-04T03:37:36.952Z,101274.06
2022-12-04T03:47:44.327Z,101276.00
2022-12-04T03:57:50.598Z,101275.81
2022-12-04T04:07:56.254Z,101285.78
2022-12-04T04:18:20.379Z,101297.69
2022-12-04T04:28:31.257Z,101291.97
2022-12-04T04:38:39.166Z,101293.25
2022-12-04T04:48:44.444Z,101285.41
2022-12-04T04:58:48.964Z,101300.69
2022-12-04T05:08:52.104Z,101292.47
2022-12-04T05:19:14.521Z,101292.88
2022-12-04T05:29:17.678Z,101288.50
2022-12-04T05:39:22.157Z,101287.22
2022-12-04T05:49:25.285Z,101283.94
2022-12-04T05:59:29.761Z,101275.50
2022-12-04T06:09:32.829Z,101286.84
2022-12-04T06:19:37.299Z,101308.31
2022-12-04T06:29:40.440Z,101295.66
2022-12-04T06:39:44.933Z,101305.16
2022-12-04T06:49:50.923Z,101306.56
2022-12-04T06:59:55.659Z,101294.25
2022-12-04T07:09:58.881Z,101297.06
2022-12-04T07:20:03.786Z,101283.59
2022-12-04T07:30:14.079Z,101294.06
2022-12-04T07:40:20.236Z,101302.22
2022-12-04T07:50:23.496Z,101303.19
2022-12-04T08:00:28.202Z,101297.50
2022-12-04T08:10:31.397Z,101302.97
2022-12-04T08:20:36.409Z,101314.06
2022-12-04T08:30:39.632Z,101306.75
2022-12-04T08:40:44.047Z,101305.44
2022-12-04T08:50:47.214Z,101291.22
2022-12-04T09:00:51.704Z,101282.28
2022-12-04T09:10:55.580Z,101299.91
2022-12-04T09:21:00.733Z,101299.56
2022-12-04T09:31:06.224Z,101278.94
2022-12-04T09:41:19.941Z,101275.75
2022-12-04T09:51:25.027Z,101270.66
2022-12-04T10:01:34.322Z,101268.56
2022-12-04T10:11:45.327Z,101243.69
2022-12-04T10:21:58.838Z,101233.50
2022-12-04T10:32:07.599Z,101210.34
2022-12-04T10:42:22.127Z,101199.69
2022-12-04T10:52:25.456Z,101197.16
2022-12-04T11:02:31.415Z,101182.41
2022-12-04T11:12:35.004Z,101172.19
2022-12-04T11:22:50.749Z,101149.78
2022-12-04T11:32:54.290Z,101139.13
2022-12-04T11:43:06.914Z,101125.94
2022-12-04T11:53:17.301Z,101109.00
2022-12-04T12:03:27.440Z,101102.22
2022-12-04T12:13:36.107Z,101092.94
2022-12-04T12:23:52.039Z,101093.09
2022-12-04T12:33:58.585Z,101076.53
2022-12-04T12:44:06.298Z,101076.25
2022-12-04T12:54:17.167Z,101073.59
2022-12-04T13:04:26.668Z,101071.50
2022-12-04T13:14:29.853Z,101071.88
2022-12-04T13:24:46.275Z,101063.69
2022-12-04T13:34:58.057Z,101058.41
2022-12-04T13:45:08.913Z,101051.72
2022-12-04T13:55:26.877Z,101072.88
2022-12-04T14:05:35.660Z,101086.81
2022-12-04T14:15:39.108Z,101078.28
2022-12-04T14:25:43.929Z,101073.84
2022-12-04T14:35:49.644Z,101092.53
2022-12-04T14:45:59.595Z,101089.84
2022-12-04T14:56:13.602Z,101089.78
2022-12-04T15:06:22.306Z,101090.78
2022-12-04T15:16:25.781Z,101090.84
2022-12-04T15:26:30.742Z,101097.84
2022-12-04T15:36:41.268Z,101092.50
2022-12-04T15:46:46.240Z,101099.38
2022-12-04T15:57:00.032Z,101092.38
2022-12-04T16:07:04.994Z,101118.44
2022-12-04T16:17:11.277Z,101115.72
2022-12-04T16:27:20.022Z,101119.94
2022-12-04T16:37:24.184Z,101114.81
2022-12-04T16:47:29.594Z,101121.63
2022-12-04T16:57:32.838Z,101119.88
2022-12-04T17:07:37.772Z,101122.25
2022-12-04T17:17:41.331Z,101112.72
2022-12-04T17:27:46.502Z,101118.78
2022-12-04T17:37:50.083Z,101129.50
2022-12-04T17:47:54.762Z,101138.25
2022-12-04T17:57:58.412Z,101146.50
2022-12-04T18:08:03.235Z,101139.78
2022-12-04T18:18:06.566Z,101137.12
2022-12-04T18:28:11.289Z,101142.75
2022-12-04T18:38:18.211Z,101140.78
2022-12-04T18:48:23.174Z,101153.50
2022-12-04T18:58:26.607Z,101152.78
2022-12-04T19:08:34.287Z,101161.00
2022-12-04T19:18:40.008Z,101146.97
2022-12-04T19:28:44.709Z,101150.31
2022-12-04T19:38:48.074Z,101156.88
2022-12-04T19:48:54.619Z,101165.44
2022-12-04T19:59:00.133Z,101175.25
2022-12-04T20:09:07.133Z,101177.81
2022-12-04T20:19:14.265Z,101179.56
2022-12-04T20:29:20.140Z,101172.63
2022-12-04T20:39:23.268Z,101187.09
2022-12-04T20:49:28.113Z,101190.53
2022-12-04T20:59:32.239Z,101199.06
2022-12-04T21:09:36.977Z,101193.44
2022-12-04T21:19:40.270Z,101198.31
2022-12-04T21:29:44.982Z,101192.97
2022-12-04T21:39:48.038Z,101183.59
2022-12-04T21:49:52.588Z,101198.25
2022-12-04T21:59:55.988Z,101196.56
2022-12-04T22:10:04.162Z,101193.53
2022-12-04T22:20:10.999Z,101184.97
2022-12-04T22:30:15.961Z,101191.56
2022-12-04T22:40:19.391Z,101197.00
2022-12-04T22:50:24.263Z,101189.44
2022-12-04T23:00:28.325Z,101190.03
2022-12-04T23:10:32.821Z,101177.19
2022-12-04T23:20:35.940Z,101175.25
2022-12-04T23:30:46.060Z,101174.31
2022-12-04T23:40:49.618Z,101169.97
2022-12-04T23:50:54.203Z,101170.16
